createdAt,value
2023-02-12T00:00:09.240Z,16.40
2023-02-12T00:02:56.959Z,20.50
2023-02-12T00:05:25.276Z,22.60
2023-02-12T00:07:53.925Z,17.80
2023-02-12T00:10:21.822Z,18.80
2023-02-12T00:12:49.698Z,15.90
2023-02-12T00:15:17.514Z,14.00
2023-02-12T00:17:45.327Z,16.30
2023-02-12T00:20:13.323Z,15.00
2023-02-12T00:22:41.459Z,22.60
2023-02-12T00:25:09.655Z,14.40
2023-02-12T00:27:37.451Z,19.20
2023-02-12T00:30:05.574Z,15.80
2023-02-12T00:32:33.441Z,15.40
2023-02-12T00:35:01.322Z,15.50
2023-02-12T00:37:29.236Z,17.50
2023-02-12T00:39:57.086Z,15.20
2023-02-12T00:42:25.224Z,13.50
2023-02-12T00:44:52.996Z,13.30
2023-02-12T00:47:21.572Z,16.60
2023-02-12T00:49:49.394Z,24.20
2023-02-12T00:52:17.351Z,14.30
2023-02-12T00:54:45.383Z,16.60
2023-02-12T00:57:13.195Z,14.70
2023-02-12T00:59:42.388Z,18.20
2023-02-12T01:02:10.231Z,17.80
2023-02-12T01:04:38.350Z,19.30
2023-02-12T01:07:06.234Z,18.00
2023-02-12T01:09:34.162Z,25.30
2023-02-12T01:12:02.622Z,20.30
2023-02-12T01:14:30.592Z,19.80
2023-02-12T01:16:58.461Z,23.60
2023-02-12T01:19:26.212Z,21.50
2023-02-12T01:21:54.081Z,18.90
2023-02-12T01:24:21.868Z,16.50
2023-02-12T01:26:49.758Z,24.10
2023-02-12T01:29:17.706Z,24.00
2023-02-12T01:31:45.673Z,29.20
2023-02-12T01:34:13.827Z,35.20
2023-02-12T01:36:41.862Z,28.80
2023-02-12T01:39:11.686Z,28.60
2023-02-12T01:41:41.512Z,23.60
2023-02-12T01:44:14.447Z,22.30
2023-02-12T01:46:43.151Z,23.60
2023-02-12T01:49:16.943Z,22.30
2023-02-12T01:51:46.405Z,23.50
2023-02-12T01:54:15.292Z,23.40
2023-02-12T01:56:43.729Z,22.50
2023-02-12T01:59:12.356Z,21.00
2023-02-12T02:01:40.262Z,21.60
2023-02-12T02:04:20.456Z,17.80
2023-02-12T02:06:50.728Z,18.30
2023-02-12T02:09:19.374Z,23.70
2023-02-12T02:12:05.486Z,25.70
2023-02-12T02:14:33.783Z,21.60
2023-02-12T02:17:06.848Z,17.30
2023-02-12T02:19:53.425Z,18.90
2023-02-12T02:22:36.472Z,22.40
2023-02-12T02:25:07.273Z,20.40
2023-02-12T02:27:53.971Z,18.30
2023-02-12T02:30:33.198Z,18.30
2023-02-12T02:33:19.425Z,16.40
2023-02-12T02:35:52.540Z,22.10
2023-02-12T02:38:25.787Z,18.80
2023-02-12T02:40:53.535Z,21.60
2023-02-12T02:43:28.779Z,25.00
2023-02-12T02:46:00.712Z,18.40
2023-02-12T02:48:44.665Z,20.10
2023-02-12T02:51:15.020Z,22.50
2023-02-12T02:53:45.411Z,22.60
2023-02-12T02:56:16.007Z,20.80
2023-02-12T02:58:46.729Z,24.10
2023-02-12T03:01:23.267Z,23.90
2023-02-12T03:04:03.363Z,20.30
2023-02-12T03:06:40.122Z,21.40
2023-02-12T03:09:19.436Z,22.80
2023-02-12T03:11:47.460Z,20.60
2023-02-12T03:14:15.212Z,22.30
2023-02-12T03:16:54.546Z,20.70
2023-02-12T03:19:23.562Z,27.90
2023-02-12T03:22:08.552Z,22.70
2023-02-12T03:24:39.855Z,21.30
2023-02-12T03:27:07.667Z,24.10
2023-02-12T03:29:35.503Z,27.30
2023-02-12T03:32:29.294Z,32.20
2023-02-12T03:34:59.991Z,28.40
2023-02-12T03:37:38.942Z,26.80
2023-02-12T03:40:15.582Z,28.70
2023-02-12T03:42:52.350Z,32.30
2023-02-12T03:45:20.111Z,29.00
2023-02-12T03:47:54.460Z,28.00
2023-02-12T03:50:27.079Z,30.50
2023-02-12T03:52:54.851Z,29.80
2023-02-12T03:55:22.686Z,31.20
2023-02-12T03:58:00.973Z,32.50
2023-02-12T04:00:28.756Z,28.70
2023-02-12T04:02:56.890Z,30.50
2023-02-12T04:05:25.829Z,31.10
2023-02-12T04:07:55.466Z,32.10
2023-02-12T04:10:27.649Z,27.70
2023-02-12T04:13:08.096Z,32.80
2023-02-12T04:15:35.823Z,28.50
2023-02-12T04:18:06.507Z,26.50
2023-02-12T04:20:44.579Z,27.70
2023-02-12T04:23:24.653Z,27.90
2023-02-12T04:25:56.196Z,29.20
2023-02-12T04:28:45.097Z,28.10
2023-02-12T04:31:28.304Z,29.10
2023-02-12T04:34:08.717Z,31.40
2023-02-12T04:36:45.010Z,29.10
2023-02-12T04:39:17.044Z,24.90
2023-02-12T04:41:44.769Z,27.10
2023-02-12T04:44:21.813Z,28.50
2023-02-12T04:46:49.768Z,27.70
2023-02-12T04:49:18.763Z,31.60
2023-02-12T04:51:46.989Z,26.40
2023-02-12T04:54:15.643Z,27.10
2023-02-12T04:56:43.760Z,23.50
2023-02-12T04:59:11.925Z,30.60
2023-02-12T05:01:40.619Z,24.90
2023-02-12T05:04:10.127Z,26.60
2023-02-12T05:06:38.460Z,24.20
2023-02-12T05:09:06.968Z,22.40
2023-02-12T05:11:34.735Z,23.30
2023-02-12T05:14:02.513Z,23.40
2023-02-12T05:16:30.283Z,23.90
2023-02-12T05:18:58.138Z,24.70
2023-02-12T05:21:25.951Z,19.60
2023-02-12T05:23:53.833Z,20.70
2023-02-12T05:26:22.445Z,19.60
2023-02-12T05:28:50.305Z,21.80
2023-02-12T05:31:21.309Z,20.00
2023-02-12T05:33:49.774Z,21.10
2023-02-12T05:36:19.297Z,22.60
2023-02-12T05:38:47.610Z,19.90
2023-02-12T05:41:17.000Z,20.10
2023-02-12T05:43:47.139Z,21.80
2023-02-12T05:46:16.564Z,18.00
2023-02-12T05:48:44.607Z,19.30
2023-02-12T05:51:13.800Z,23.10
2023-02-12T05:53:42.293Z,23.40
2023-02-12T05:56:11.683Z,22.30
2023-02-12T05:58:40.453Z,20.20
2023-02-12T06:01:18.774Z,21.60
2023-02-12T06:03:46.645Z,21.90
2023-02-12T06:06:14.525Z,21.00
2023-02-12T06:08:42.429Z,20.90
2023-02-12T06:11:12.733Z,20.60
2023-02-12T06:13:40.751Z,18.20
2023-02-12T06:16:16.441Z,16.90
2023-02-12T06:18:44.340Z,22.50
2023-02-12T06:21:12.168Z,22.10
2023-02-12T06:23:40.081Z,17.40
2023-02-12T06:26:08.040Z,21.50
2023-02-12T06:28:36.018Z,22.90
2023-02-12T06:31:04.295Z,19.20
2023-02-12T06:33:33.080Z,17.70
2023-02-12T06:36:03.607Z,22.40
2023-02-12T06:38:31.800Z,25.80
2023-02-12T06:41:01.430Z,25.30
2023-02-12T06:43:29.537Z,24.90
2023-02-12T06:46:00.788Z,23.90
2023-02-12T06:48:29.050Z,21.50
2023-02-12T06:50:56.920Z,21.80
2023-02-12T06:53:24.940Z,26.20
2023-02-12T06:55:55.608Z,22.50
2023-02-12T06:58:23.661Z,21.30
2023-02-12T07:00:51.642Z,24.20
2023-02-12T07:03:19.653Z,17.20
2023-02-12T07:05:51.778Z,22.20
2023-02-12T07:08:19.802Z,23.30
2023-02-12T07:10:48.582Z,26.40
2023-02-12T07:13:16.601Z,22.00
2023-02-12T07:15:47.264Z,22.10
2023-02-12T07:18:15.023Z,32.60
2023-02-12T07:20:46.926Z,43.30
2023-02-12T07:23:17.335Z,59.40
2023-02-12T07:25:54.333Z,68.40
2023-02-12T07:28:25.050Z,55.20
2023-02-12T07:30:53.462Z,30.20
2023-02-12T07:33:21.259Z,26.90
2023-02-12T07:35:49.686Z,24.50
2023-02-12T07:38:20.845Z,36.10
2023-02-12T07:40:48.970Z,32.90
2023-02-12T07:43:16.944Z,42.90
2023-02-12T07:45:45.062Z,45.00
2023-02-12T07:48:26.401Z,33.50
2023-02-12T07:53:42.517Z,28.60
2023-02-12T07:56:12.027Z,26.70
2023-02-12T07:58:40.550Z,29.00
2023-02-12T08:01:20.035Z,28.10
2023-02-12T08:03:48.651Z,25.20
2023-02-12T08:06:18.080Z,22.60
2023-02-12T08:08:46.615Z,30.20
2023-02-12T08:11:15.422Z,24.40
2023-02-12T08:13:43.678Z,25.40
2023-02-12T08:16:12.758Z,28.50
2023-02-12T08:18:40.735Z,27.60
2023-02-12T08:21:09.726Z,26.50
2023-02-12T08:23:38.045Z,36.80
2023-02-12T08:26:08.941Z,31.10
2023-02-12T08:28:37.758Z,33.40
2023-02-12T08:31:07.055Z,33.40
2023-02-12T08:33:34.942Z,37.00
2023-02-12T08:36:10.026Z,36.50
2023-02-12T08:38:38.768Z,29.70
2023-02-12T08:41:13.717Z,41.20
2023-02-12T08:43:42.219Z,34.30
2023-02-12T08:46:15.675Z,41.80
2023-02-12T08:48:45.332Z,42.50
2023-02-12T08:51:14.751Z,41.50
2023-02-12T08:53:43.543Z,41.30
2023-02-12T08:56:12.159Z,35.50
2023-02-12T08:58:40.420Z,34.10
2023-02-12T09:01:13.226Z,32.40
2023-02-12T09:03:41.334Z,28.10
2023-02-12T09:06:09.323Z,31.00
2023-02-12T09:08:37.914Z,27.90
2023-02-12T09:11:09.970Z,34.50
2023-02-12T09:13:37.807Z,33.20
2023-02-12T09:16:06.111Z,29.80
2023-02-12T09:18:34.499Z,37.00
2023-02-12T09:21:05.860Z,32.50
2023-02-12T09:23:33.950Z,31.70
2023-02-12T09:26:05.706Z,30.80
2023-02-12T09:28:34.374Z,29.20
2023-02-12T09:31:09.411Z,36.60
2023-02-12T09:40:33.332Z,34.70
2023-02-12T09:43:06.381Z,28.20
2023-02-12T09:45:43.137Z,27.80
2023-02-12T09:48:09.900Z,29.00
2023-02-12T09:50:36.816Z,29.30
2023-02-12T09:53:03.929Z,31.30
2023-02-12T09:55:31.758Z,37.40
2023-02-12T09:58:00.447Z,26.50
2023-02-12T10:00:30.518Z,34.00
2023-02-12T10:03:01.367Z,33.20
2023-02-12T10:05:34.433Z,33.80
2023-02-12T10:08:23.910Z,41.80
2023-02-12T10:10:52.917Z,36.70
2023-02-12T10:13:22.400Z,40.50
2023-02-12T10:16:00.522Z,37.00
2023-02-12T10:18:45.583Z,33.90
2023-02-12T10:21:30.518Z,49.10
2023-02-12T10:24:05.499Z,48.30
2023-02-12T10:26:37.515Z,45.80
2023-02-12T10:29:26.904Z,45.10
2023-02-12T10:32:11.107Z,42.20
2023-02-12T10:34:38.042Z,33.30
2023-02-12T10:37:09.604Z,37.40
2023-02-12T10:39:37.797Z,37.50
2023-02-12T10:42:19.293Z,30.00
2023-02-12T10:44:46.065Z,38.20
2023-02-12T10:47:20.996Z,37.00
2023-02-12T10:50:01.235Z,44.00
2023-02-12T10:52:54.282Z,44.80
2023-02-12T10:55:27.172Z,48.50
2023-02-12T10:57:54.390Z,44.10
2023-02-12T11:00:24.020Z,37.20
2023-02-12T11:03:06.051Z,52.40
2023-02-12T11:05:35.868Z,46.20
2023-02-12T11:08:03.455Z,39.90
2023-02-12T11:10:31.596Z,46.30
2023-02-12T11:12:59.408Z,37.40
2023-02-12T11:15:26.957Z,33.60
2023-02-12T11:18:01.158Z,26.80
2023-02-12T11:20:29.576Z,24.20
2023-02-12T11:22:59.098Z,22.80
2023-02-12T11:25:27.409Z,20.90
2023-02-12T11:28:13.749Z,34.20
2023-02-12T11:30:59.376Z,28.50
2023-02-12T11:33:28.655Z,20.70
2023-02-12T11:36:01.381Z,25.70
2023-02-12T11:38:33.107Z,21.40
2023-02-12T11:41:03.527Z,17.30
2023-02-12T11:43:30.878Z,23.30
2023-02-12T11:45:58.655Z,23.60
2023-02-12T11:48:27.284Z,20.60
2023-02-12T11:50:55.946Z,19.70
2023-02-12T11:53:25.139Z,20.70
2023-02-12T11:55:53.476Z,19.60
2023-02-12T11:58:21.762Z,23.50
2023-02-12T12:01:03.780Z,19.10
2023-02-12T12:03:36.837Z,19.30
2023-02-12T12:06:23.642Z,20.70
2023-02-12T12:08:50.118Z,18.10
2023-02-12T12:11:23.717Z,20.10
2023-02-12T12:13:53.287Z,15.20
2023-02-12T12:16:52.772Z,16.70
2023-02-12T12:19:51.922Z,17.80
2023-02-12T12:22:34.219Z,20.00
2023-02-12T12:25:10.185Z,18.30
2023-02-12T12:27:58.681Z,16.10
2023-02-12T12:30:45.830Z,17.70
2023-02-12T12:33:16.680Z,19.60
2023-02-12T12:35:47.645Z,17.90
2023-02-12T12:38:34.548Z,21.70
2023-02-12T12:41:20.432Z,19.20
2023-02-12T12:44:06.186Z,17.50
2023-02-12T12:46:49.868Z,20.70
2023-02-12T12:49:30.527Z,19.70
2023-02-12T12:52:07.767Z,23.90
2023-02-12T12:54:34.561Z,22.70
2023-02-12T12:57:07.860Z,21.20
2023-02-12T12:59:37.661Z,19.30
2023-02-12T13:02:18.535Z,18.30
2023-02-12T13:04:48.528Z,21.70
2023-02-12T13:07:19.511Z,19.10
2023-02-12T13:09:58.529Z,21.90
2023-02-12T13:12:25.044Z,31.10
2023-02-12T13:15:10.565Z,22.40
2023-02-12T13:17:56.531Z,24.70
2023-02-12T13:20:42.713Z,24.80
2023-02-12T13:23:09.258Z,26.40
2023-02-12T13:25:35.844Z,24.80
2023-02-12T13:28:03.294Z,26.00
2023-02-12T13:30:33.097Z,23.60
2023-02-12T13:33:17.365Z,27.00
2023-02-12T13:35:46.000Z,26.90
2023-02-12T13:38:21.866Z,24.60
2023-02-12T13:40:49.284Z,26.00
2023-02-12T13:43:25.980Z,28.60
2023-02-12T13:45:57.308Z,28.90
2023-02-12T13:48:24.045Z,29.40
2023-02-12T13:51:01.077Z,24.30
2023-02-12T13:53:42.354Z,24.60
2023-02-12T13:56:11.944Z,28.60
2023-02-12T13:58:38.879Z,26.70
2023-02-12T14:01:08.155Z,28.80
2023-02-12T14:03:38.291Z,28.20
2023-02-12T14:06:10.805Z,24.20
2023-02-12T14:08:39.562Z,27.10
2023-02-12T14:11:12.075Z,17.80
2023-02-12T14:13:51.029Z,25.50
2023-02-12T14:16:38.440Z,22.80
2023-02-12T14:19:23.930Z,19.30
2023-02-12T14:21:50.584Z,24.30
2023-02-12T14:24:35.671Z,20.60
2023-02-12T14:27:06.169Z,18.40
2023-02-12T14:29:32.681Z,18.50
2023-02-12T14:31:59.204Z,19.60
2023-02-12T14:34:44.060Z,20.10
2023-02-12T14:37:12.232Z,22.80
2023-02-12T14:39:38.832Z,16.40
2023-02-12T14:42:05.297Z,18.50
2023-02-12T14:44:37.404Z,20.80
2023-02-12T14:47:33.051Z,25.20
2023-02-12T14:50:02.626Z,16.80
2023-02-12T14:52:30.990Z,16.80
2023-02-12T14:55:00.428Z,15.80
2023-02-12T14:57:31.913Z,20.40
2023-02-12T15:00:00.045Z,18.90
2023-02-12T15:02:28.215Z,22.50
2023-02-12T15:05:00.909Z,18.60
2023-02-12T15:07:31.082Z,14.30
2023-02-12T15:10:02.135Z,16.20
2023-02-12T15:12:35.198Z,16.50
2023-02-12T15:15:05.662Z,14.50
2023-02-12T15:17:34.255Z,12.40
2023-02-12T15:20:15.812Z,13.90
2023-02-12T15:22:42.617Z,19.90
2023-02-12T15:25:26.256Z,15.90
2023-02-12T15:27:57.434Z,21.30
2023-02-12T15:30:26.820Z,17.40
2023-02-12T15:32:55.743Z,21.40
2023-02-12T15:35:29.743Z,20.90
2023-02-12T15:37:59.668Z,26.20
2023-02-12T15:40:26.983Z,22.30
2023-02-12T15:42:59.494Z,27.60
2023-02-12T15:45:30.410Z,27.50
2023-02-12T15:48:00.122Z,22.30
2023-02-12T15:57:31.390Z,26.00
2023-02-12T16:00:04.223Z,17.00
2023-02-12T16:02:33.339Z,18.40
2023-02-12T16:05:02.907Z,13.00
2023-02-12T16:07:35.563Z,16.70
2023-02-12T16:10:07.319Z,16.10
2023-02-12T16:12:37.742Z,15.40
2023-02-12T16:15:05.933Z,17.20
2023-02-12T16:17:35.413Z,15.10
2023-02-12T16:20:09.657Z,10.80
2023-02-12T16:22:41.771Z,26.10
2023-02-12T16:25:15.715Z,15.60
2023-02-12T16:27:50.853Z,16.00
2023-02-12T16:30:26.860Z,18.10
2023-02-12T16:32:55.373Z,16.00
2023-02-12T16:35:24.459Z,19.20
2023-02-12T16:38:00.590Z,17.10
2023-02-12T16:40:30.296Z,16.20
2023-02-12T16:42:58.171Z,19.50
2023-02-12T16:45:28.901Z,25.40
2023-02-12T16:48:15.071Z,16.30
2023-02-12T16:50:51.129Z,16.80
2023-02-12T16:53:27.020Z,14.00
2023-02-12T16:55:55.704Z,14.20
2023-02-12T16:58:25.924Z,13.70
2023-02-12T17:00:54.997Z,14.30
2023-02-12T17:03:24.385Z,14.70
2023-02-12T17:05:55.652Z,19.80
2023-02-12T17:08:24.111Z,15.80
2023-02-12T17:10:52.437Z,15.60
2023-02-12T17:13:23.637Z,13.70
2023-02-12T17:15:55.455Z,12.00
2023-02-12T17:18:23.841Z,13.50
2023-02-12T17:20:54.480Z,10.40
2023-02-12T17:23:22.923Z,11.20
2023-02-12T17:25:51.080Z,19.60
2023-02-12T17:28:19.104Z,16.30
2023-02-12T17:30:47.207Z,15.70
2023-02-12T17:33:16.099Z,12.40
2023-02-12T17:35:44.012Z,11.40
2023-02-12T17:38:11.853Z,9.80
2023-02-12T17:40:39.698Z,14.10
2023-02-12T17:43:07.826Z,13.30
2023-02-12T17:45:35.782Z,15.70
2023-02-12T17:48:03.764Z,14.20
2023-02-12T17:50:31.542Z,12.80
2023-02-12T17:52:59.338Z,15.40
2023-02-12T17:55:27.196Z,15.90
2023-02-12T17:57:55.830Z,20.10
2023-02-12T18:00:24.016Z,14.70
2023-02-12T18:02:52.177Z,15.60
2023-02-12T18:05:20.599Z,17.80
2023-02-12T18:07:48.733Z,17.90
2023-02-12T18:10:16.913Z,16.70
2023-02-12T18:12:44.848Z,18.50
2023-02-12T18:15:13.755Z,20.40
2023-02-12T18:17:42.797Z,19.00
2023-02-12T18:20:11.315Z,24.70
2023-02-12T18:22:39.075Z,24.10
2023-02-12T18:25:07.191Z,31.40
2023-02-12T18:27:35.063Z,30.00
2023-02-12T18:30:02.987Z,27.10
2023-02-12T18:32:31.032Z,27.30
2023-02-12T18:34:58.855Z,27.30
2023-02-12T18:37:26.820Z,18.30
2023-02-12T18:39:54.853Z,22.90
2023-02-12T18:42:22.926Z,26.80
2023-02-12T18:45:42.468Z,31.20
2023-02-12T18:48:17.249Z,37.80
2023-02-12T18:50:45.674Z,21.50
2023-02-12T18:53:13.634Z,26.20
2023-02-12T18:55:41.495Z,26.70
2023-02-12T18:58:09.330Z,26.10
2023-02-12T19:00:37.213Z,26.60
2023-02-12T19:03:05.215Z,36.50
2023-02-12T19:05:33.361Z,26.40
2023-02-12T19:08:01.645Z,25.30
2023-02-12T19:10:29.508Z,28.40
2023-02-12T19:12:57.468Z,33.90
2023-02-12T19:15:25.268Z,29.20
2023-02-12T19:17:53.064Z,29.90
2023-02-12T19:20:20.985Z,26.70
2023-02-12T19:22:49.392Z,30.40
2023-02-12T19:25:17.432Z,25.60
2023-02-12T19:27:45.341Z,33.30
2023-02-12T19:30:13.469Z,31.50
2023-02-12T19:32:41.333Z,27.70
2023-02-12T19:35:09.453Z,27.50
2023-02-12T19:37:37.383Z,31.90
2023-02-12T19:40:06.795Z,35.50
2023-02-12T19:42:34.692Z,43.60
2023-02-12T19:45:02.477Z,37.90
2023-02-12T19:47:30.442Z,29.60
2023-02-12T19:49:58.272Z,28.20
2023-02-12T19:52:26.326Z,29.50
2023-02-12T19:54:54.338Z,35.40
2023-02-12T19:57:22.375Z,30.90
2023-02-12T19:59:50.562Z,31.00
2023-02-12T20:02:18.489Z,34.40
2023-02-12T20:04:47.482Z,32.10
2023-02-12T20:07:15.384Z,30.10
2023-02-12T20:09:43.608Z,34.40
2023-02-12T20:12:11.552Z,36.00
2023-02-12T20:14:39.350Z,44.60
2023-02-12T20:17:07.188Z,37.60
2023-02-12T20:19:35.140Z,30.80
2023-02-12T20:22:04.726Z,36.30
2023-02-12T20:24:33.794Z,33.70
2023-02-12T20:27:02.622Z,35.00
2023-02-12T20:29:30.619Z,37.10
2023-02-12T20:31:58.595Z,34.20
2023-02-12T20:34:26.540Z,38.20
2023-02-12T20:36:54.500Z,35.80
2023-02-12T20:39:22.356Z,37.60
2023-02-12T20:41:50.368Z,34.00
2023-02-12T20:44:20.100Z,35.50
2023-02-12T20:46:50.042Z,33.10
2023-02-12T20:49:19.482Z,40.40
2023-02-12T20:51:49.128Z,34.00
2023-02-12T20:54:17.332Z,32.20
2023-02-12T20:56:45.206Z,29.00
2023-02-12T20:59:13.177Z,33.10
2023-02-12T21:01:41.780Z,29.90
2023-02-12T21:04:13.956Z,29.90
2023-02-12T21:06:42.732Z,31.10
2023-02-12T21:09:11.583Z,33.00
2023-02-12T21:11:41.126Z,25.40
2023-02-12T21:14:21.768Z,27.40
2023-02-12T21:16:50.477Z,27.80
2023-02-12T21:19:19.017Z,30.70
2023-02-12T21:21:47.066Z,23.60
2023-02-12T21:24:16.623Z,28.20
2023-02-12T21:26:44.654Z,24.10
2023-02-12T21:29:12.580Z,32.10
2023-02-12T21:31:41.599Z,25.10
2023-02-12T21:34:11.473Z,26.90
2023-02-12T21:36:40.227Z,32.20
2023-02-12T21:39:09.169Z,27.10
2023-02-12T21:41:42.153Z,28.50
2023-02-12T21:44:17.474Z,26.80
2023-02-12T21:46:45.421Z,31.00
2023-02-12T21:49:14.264Z,25.10
2023-02-12T21:51:44.110Z,24.70
2023-02-12T21:54:13.464Z,32.70
2023-02-12T21:56:42.409Z,26.30
2023-02-12T21:59:10.561Z,29.20
2023-02-12T22:01:41.373Z,27.10
2023-02-12T22:04:09.888Z,26.80
2023-02-12T22:06:42.827Z,24.40
2023-02-12T22:09:11.856Z,30.90
2023-02-12T22:11:40.965Z,29.20
2023-02-12T22:14:10.129Z,29.00
2023-02-12T22:16:38.091Z,31.50
2023-02-12T22:19:06.012Z,30.00
2023-02-12T22:21:35.904Z,31.10
2023-02-12T22:24:04.919Z,26.90
2023-02-12T22:26:33.811Z,23.60
2023-02-12T22:29:03.908Z,28.50
2023-02-12T22:31:33.941Z,23.90
2023-02-12T22:34:04.364Z,25.10
2023-02-12T22:36:34.050Z,22.40
2023-02-12T22:39:01.925Z,28.50
2023-02-12T22:41:29.777Z,30.70
2023-02-12T22:44:01.533Z,35.70
2023-02-12T22:46:29.448Z,30.30
2023-02-12T22:48:57.441Z,28.90
2023-02-12T22:51:29.649Z,23.50
2023-02-12T22:53:57.853Z,26.50
2023-02-12T22:56:26.029Z,22.20
2023-02-12T22:58:55.358Z,20.90
2023-02-12T23:01:23.301Z,24.10
2023-02-12T23:03:51.659Z,22.30
2023-02-12T23:06:21.145Z,22.40
2023-02-12T23:08:53.890Z,26.50
2023-02-12T23:11:24.741Z,21.80
2023-02-12T23:13:52.783Z,24.20
2023-02-12T23:16:21.042Z,24.00
2023-02-12T23:18:48.998Z,18.40
2023-02-12T23:21:17.181Z,18.90
2023-02-12T23:23:44.992Z,16.90
2023-02-12T23:26:12.872Z,22.10
2023-02-12T23:28:40.843Z,19.60
2023-02-12T23:31:08.845Z,25.50
2023-02-12T23:33:36.889Z,16.60
2023-02-12T23:36:04.985Z,18.30
2023-02-12T23:38:32.822Z,18.40
2023-02-12T23:41:00.700Z,20.90
2023-02-12T23:43:28.507Z,20.00
2023-02-12T23:45:56.330Z,22.70
2023-02-12T23:48:24.340Z,16.20
2023-02-12T23:50:52.282Z,19.00
2023-02-12T23:53:20.198Z,18.30
2023-02-12T23:55:49.547Z,16.90
2023-02-12T23:58:17.399Z,21.30
